sensor_id;sensor_type;location;lat;lon;timestamp;P1;durP1;ratioP1;P2;durP2;ratioP2
54923;SDS011;40825;52.270;20.984;2022-10-31T00:01:13;17.75;;;10.08;;
54923;SDS011;40825;52.270;20.984;2022-10-31T00:03:46;21.07;;;10.78;;
54923;SDS011;40825;52.270;20.984;2022-10-31T00:06:13;17.50;;;8.95;;
54923;SDS011;40825;52.270;20.984;2022-10-31T00:08:40;16.70;;;9.33;;
54923;SDS011;40825;52.270;20.984;2022-10-31T00:11:09;16.93;;;9.50;;
54923;SDS011;40825;52.270;20.984;2022-10-31T00:13:36;15.93;;;9.08;;
54923;SDS011;40825;52.270;20.984;2022-10-31T00:16:02;16.70;;;9.30;;
54923;SDS011;40825;52.270;20.984;2022-10-31T00:18:28;15.55;;;8.73;;
54923;SDS011;40825;52.270;20.984;2022-10-31T00:21:00;13.65;;;8.80;;
54923;SDS011;40825;52.270;20.984;2022-10-31T00:23:28;17.42;;;9.20;;
54923;SDS011;40825;52.270;20.984;2022-10-31T00:25:59;16.57;;;9.65;;
54923;SDS011;40825;52.270;20.984;2022-10-31T00:28:30;17.87;;;9.50;;
54923;SDS011;40825;52.270;20.984;2022-10-31T00:31:04;13.90;;;8.30;;
54923;SDS011;40825;52.270;20.984;2022-10-31T00:33:36;14.40;;;8.48;;
54923;SDS011;40825;52.270;20.984;2022-10-31T00:36:04;14.75;;;8.73;;
54923;SDS011;40825;52.270;20.984;2022-10-31T00:38:31;18.15;;;9.88;;
54923;SDS011;40825;52.270;20.984;2022-10-31T00:40:58;14.35;;;8.78;;
54923;SDS011;40825;52.270;20.984;2022-10-31T00:43:24;16.70;;;9.15;;
54923;SDS011;40825;52.270;20.984;2022-10-31T00:45:50;17.37;;;9.63;;
54923;SDS011;40825;52.270;20.984;2022-10-31T00:48:16;13.98;;;9.20;;
54923;SDS011;40825;52.270;20.984;2022-10-31T00:50:42;14.30;;;8.75;;
54923;SDS011;40825;52.270;20.984;2022-10-31T00:53:08;16.52;;;9.65;;
54923;SDS011;40825;52.270;20.984;2022-10-31T00:55:34;17.70;;;9.20;;
54923;SDS011;40825;52.270;20.984;2022-10-31T00:58:00;17.57;;;9.98;;
54923;SDS011;40825;52.270;20.984;2022-10-31T01:00:27;18.05;;;8.93;;
54923;SDS011;40825;52.270;20.984;2022-10-31T01:02:53;17.27;;;9.60;;
54923;SDS011;40825;52.270;20.984;2022-10-31T01:05:19;17.05;;;9.13;;
54923;SDS011;40825;52.270;20.984;2022-10-31T01:07:46;17.25;;;9.93;;
54923;SDS011;40825;52.270;20.984;2022-10-31T01:10:12;18.57;;;9.83;;
54923;SDS011;40825;52.270;20.984;2022-10-31T01:12:42;16.57;;;9.30;;
54923;SDS011;40825;52.270;20.984;2022-10-31T01:15:12;14.50;;;8.50;;
54923;SDS011;40825;52.270;20.984;2022-10-31T01:17:40;19.50;;;9.38;;
54923;SDS011;40825;52.270;20.984;2022-10-31T01:20:07;17.60;;;8.98;;
54923;SDS011;40825;52.270;20.984;2022-10-31T01:22:34;13.08;;;7.95;;
54923;SDS011;40825;52.270;20.984;2022-10-31T01:25:00;14.35;;;8.65;;
54923;SDS011;40825;52.270;20.984;2022-10-31T01:27:28;16.07;;;8.93;;
54923;SDS011;40825;52.270;20.984;2022-10-31T01:29:54;14.65;;;8.48;;
54923;SDS011;40825;52.270;20.984;2022-10-31T01:32:20;15.60;;;8.93;;
54923;SDS011;40825;52.270;20.984;2022-10-31T01:34:45;18.25;;;9.40;;
54923;SDS011;40825;52.270;20.984;2022-10-31T01:37:11;15.75;;;8.80;;
54923;SDS011;40825;52.270;20.984;2022-10-31T01:39:37;17.92;;;9.20;;
54923;SDS011;40825;52.270;20.984;2022-10-31T01:42:03;15.25;;;8.75;;
54923;SDS011;40825;52.270;20.984;2022-10-31T01:47:11;16.62;;;8.83;;
54923;SDS011;40825;52.270;20.984;2022-10-31T01:49:46;16.65;;;9.15;;
54923;SDS011;40825;52.270;20.984;2022-10-31T01:52:21;14.55;;;8.85;;
54923;SDS011;40825;52.270;20.984;2022-10-31T01:55:07;17.48;;;9.15;;
54923;SDS011;40825;52.270;20.984;2022-10-31T01:57:53;15.00;;;8.68;;
54923;SDS011;40825;52.270;20.984;2022-10-31T02:00:23;15.10;;;9.10;;
54923;SDS011;40825;52.270;20.984;2022-10-31T02:02:49;15.95;;;9.10;;
54923;SDS011;40825;52.270;20.984;2022-10-31T02:05:19;18.62;;;9.60;;
54923;SDS011;40825;52.270;20.984;2022-10-31T02:07:50;17.67;;;10.05;;
54923;SDS011;40825;52.270;20.984;2022-10-31T02:10:22;16.77;;;9.15;;
54923;SDS011;40825;52.270;20.984;2022-10-31T02:12:52;19.00;;;9.90;;
54923;SDS011;40825;52.270;20.984;2022-10-31T02:15:22;20.20;;;11.28;;
54923;SDS011;40825;52.270;20.984;2022-10-31T02:17:48;17.50;;;10.75;;
54923;SDS011;40825;52.270;20.984;2022-10-31T02:20:19;18.70;;;11.22;;
54923;SDS011;40825;52.270;20.984;2022-10-31T02:29:08;19.32;;;10.43;;
54923;SDS011;40825;52.270;20.984;2022-10-31T02:37:29;21.35;;;13.10;;
54923;SDS011;40825;52.270;20.984;2022-10-31T02:40:05;21.00;;;12.18;;
54923;SDS011;40825;52.270;20.984;2022-10-31T02:48:07;20.75;;;11.95;;
54923;SDS011;40825;52.270;20.984;2022-10-31T02:50:35;21.65;;;12.37;;
54923;SDS011;40825;52.270;20.984;2022-10-31T02:53:06;24.50;;;12.93;;
54923;SDS011;40825;52.270;20.984;2022-10-31T02:58:13;23.05;;;13.45;;
54923;SDS011;40825;52.270;20.984;2022-10-31T03:03:58;22.85;;;13.58;;
54923;SDS011;40825;52.270;20.984;2022-10-31T03:06:33;23.95;;;14.38;;
54923;SDS011;40825;52.270;20.984;2022-10-31T03:09:35;19.30;;;12.93;;
54923;SDS011;40825;52.270;20.984;2022-10-31T03:12:26;21.65;;;12.23;;
54923;SDS011;40825;52.270;20.984;2022-10-31T03:18:13;21.37;;;12.75;;
54923;SDS011;40825;52.270;20.984;2022-10-31T03:20:56;22.75;;;13.18;;
54923;SDS011;40825;52.270;20.984;2022-10-31T03:23:37;22.00;;;12.93;;
54923;SDS011;40825;52.270;20.984;2022-10-31T03:26:05;21.52;;;13.22;;
54923;SDS011;40825;52.270;20.984;2022-10-31T03:28:35;21.20;;;13.62;;
54923;SDS011;40825;52.270;20.984;2022-10-31T03:31:05;23.02;;;13.05;;
54923;SDS011;40825;52.270;20.984;2022-10-31T03:38:30;20.25;;;11.85;;
54923;SDS011;40825;52.270;20.984;2022-10-31T03:40:59;21.15;;;12.03;;
54923;SDS011;40825;52.270;20.984;2022-10-31T03:43:30;21.27;;;12.88;;
54923;SDS011;40825;52.270;20.984;2022-10-31T03:46:00;21.97;;;13.18;;
54923;SDS011;40825;52.270;20.984;2022-10-31T03:48:26;23.92;;;14.23;;
54923;SDS011;40825;52.270;20.984;2022-10-31T03:50:57;23.83;;;14.13;;
54923;SDS011;40825;52.270;20.984;2022-10-31T03:53:31;28.67;;;16.00;;
54923;SDS011;40825;52.270;20.984;2022-10-31T03:56:02;27.27;;;16.77;;
54923;SDS011;40825;52.270;20.984;2022-10-31T03:58:56;27.65;;;17.27;;
54923;SDS011;40825;52.270;20.984;2022-10-31T04:01:25;28.27;;;18.07;;
54923;SDS011;40825;52.270;20.984;2022-10-31T04:03:54;27.65;;;17.15;;
54923;SDS011;40825;52.270;20.984;2022-10-31T04:06:22;25.17;;;17.32;;
54923;SDS011;40825;52.270;20.984;2022-10-31T04:08:52;26.50;;;16.42;;
54923;SDS011;40825;52.270;20.984;2022-10-31T04:11:22;26.77;;;16.42;;
54923;SDS011;40825;52.270;20.984;2022-10-31T04:13:53;28.07;;;17.37;;
54923;SDS011;40825;52.270;20.984;2022-10-31T04:16:22;28.00;;;16.95;;
54923;SDS011;40825;52.270;20.984;2022-10-31T04:18:51;26.95;;;16.48;;
54923;SDS011;40825;52.270;20.984;2022-10-31T04:21:17;25.95;;;18.05;;
54923;SDS011;40825;52.270;20.984;2022-10-31T04:23:43;26.33;;;17.35;;
54923;SDS011;40825;52.270;20.984;2022-10-31T04:26:12;29.63;;;17.77;;
54923;SDS011;40825;52.270;20.984;2022-10-31T04:28:38;28.20;;;16.70;;
54923;SDS011;40825;52.270;20.984;2022-10-31T04:31:04;26.02;;;16.27;;
54923;SDS011;40825;52.270;20.984;2022-10-31T04:33:31;26.30;;;16.57;;
54923;SDS011;40825;52.270;20.984;2022-10-31T04:35:57;27.60;;;17.17;;
54923;SDS011;40825;52.270;20.984;2022-10-31T04:38:22;27.32;;;16.65;;
54923;SDS011;40825;52.270;20.984;2022-10-31T04:40:48;29.12;;;18.52;;
54923;SDS011;40825;52.270;20.984;2022-10-31T04:43:15;27.02;;;16.85;;
54923;SDS011;40825;52.270;20.984;2022-10-31T04:45:40;26.73;;;16.85;;
54923;SDS011;40825;52.270;20.984;2022-10-31T04:48:06;25.70;;;17.10;;
54923;SDS011;40825;52.270;20.984;2022-10-31T04:50:32;26.12;;;17.57;;
54923;SDS011;40825;52.270;20.984;2022-10-31T04:52:58;26.35;;;17.73;;
54923;SDS011;40825;52.270;20.984;2022-10-31T04:55:24;26.68;;;17.70;;
54923;SDS011;40825;52.270;20.984;2022-10-31T04:57:50;25.48;;;17.40;;
54923;SDS011;40825;52.270;20.984;2022-10-31T05:00:18;26.93;;;17.62;;
54923;SDS011;40825;52.270;20.984;2022-10-31T05:02:49;28.25;;;17.52;;
54923;SDS011;40825;52.270;20.984;2022-10-31T05:05:19;25.10;;;16.30;;
54923;SDS011;40825;52.270;20.984;2022-10-31T05:07:54;25.35;;;17.07;;
54923;SDS011;40825;52.270;20.984;2022-10-31T05:10:22;27.22;;;18.17;;
54923;SDS011;40825;52.270;20.984;2022-10-31T05:12:52;29.42;;;18.85;;
54923;SDS011;40825;52.270;20.984;2022-10-31T05:15:22;27.93;;;16.95;;
54923;SDS011;40825;52.270;20.984;2022-10-31T05:17:50;27.22;;;17.80;;
54923;SDS011;40825;52.270;20.984;2022-10-31T05:20:18;28.20;;;18.15;;
54923;SDS011;40825;52.270;20.984;2022-10-31T05:22:48;28.30;;;17.85;;
54923;SDS011;40825;52.270;20.984;2022-10-31T05:25:17;26.23;;;17.98;;
54923;SDS011;40825;52.270;20.984;2022-10-31T05:27:45;29.25;;;18.42;;
54923;SDS011;40825;52.270;20.984;2022-10-31T05:30:14;28.98;;;17.98;;
54923;SDS011;40825;52.270;20.984;2022-10-31T05:32:46;28.60;;;18.07;;
54923;SDS011;40825;52.270;20.984;2022-10-31T05:35:20;29.30;;;18.07;;
54923;SDS011;40825;52.270;20.984;2022-10-31T05:37:46;26.82;;;17.40;;
54923;SDS011;40825;52.270;20.984;2022-10-31T05:40:13;26.65;;;18.00;;
54923;SDS011;40825;52.270;20.984;2022-10-31T05:42:42;30.70;;;18.92;;
54923;SDS011;40825;52.270;20.984;2022-10-31T05:45:10;26.82;;;18.05;;
54923;SDS011;40825;52.270;20.984;2022-10-31T05:47:39;29.85;;;18.27;;
54923;SDS011;40825;52.270;20.984;2022-10-31T05:50:07;29.63;;;19.60;;
54923;SDS011;40825;52.270;20.984;2022-10-31T05:52:34;30.80;;;19.10;;
54923;SDS011;40825;52.270;20.984;2022-10-31T05:55:01;29.37;;;18.98;;
54923;SDS011;40825;52.270;20.984;2022-10-31T05:57:28;29.57;;;18.40;;
54923;SDS011;40825;52.270;20.984;2022-10-31T05:59:54;34.25;;;20.02;;
54923;SDS011;40825;52.270;20.984;2022-10-31T06:02:21;26.27;;;18.82;;
54923;SDS011;40825;52.270;20.984;2022-10-31T06:04:47;32.85;;;19.92;;
54923;SDS011;40825;52.270;20.984;2022-10-31T06:07:13;31.40;;;20.55;;
54923;SDS011;40825;52.270;20.984;2022-10-31T06:09:39;33.78;;;20.55;;
54923;SDS011;40825;52.270;20.984;2022-10-31T06:12:05;32.67;;;20.75;;
54923;SDS011;40825;52.270;20.984;2022-10-31T06:14:31;34.83;;;21.45;;
54923;SDS011;40825;52.270;20.984;2022-10-31T06:16:57;30.77;;;20.95;;
54923;SDS011;40825;52.270;20.984;2022-10-31T06:19:23;32.53;;;20.80;;
54923;SDS011;40825;52.270;20.984;2022-10-31T06:21:49;36.50;;;22.27;;
54923;SDS011;40825;52.270;20.984;2022-10-31T06:24:15;34.58;;;21.90;;
54923;SDS011;40825;52.270;20.984;2022-10-31T06:26:41;37.73;;;22.15;;
54923;SDS011;40825;52.270;20.984;2022-10-31T06:29:09;36.25;;;22.73;;
54923;SDS011;40825;52.270;20.984;2022-10-31T06:31:35;34.98;;;21.62;;
54923;SDS011;40825;52.270;20.984;2022-10-31T06:34:01;34.43;;;21.68;;
54923;SDS011;40825;52.270;20.984;2022-10-31T06:36:27;31.87;;;19.62;;
54923;SDS011;40825;52.270;20.984;2022-10-31T06:38:53;33.25;;;20.68;;
54923;SDS011;40825;52.270;20.984;2022-10-31T06:41:18;32.48;;;20.00;;
54923;SDS011;40825;52.270;20.984;2022-10-31T06:43:48;33.73;;;20.17;;
54923;SDS011;40825;52.270;20.984;2022-10-31T06:46:14;31.75;;;19.92;;
54923;SDS011;40825;52.270;20.984;2022-10-31T06:48:40;31.17;;;19.85;;
54923;SDS011;40825;52.270;20.984;2022-10-31T06:51:07;33.08;;;19.32;;
54923;SDS011;40825;52.270;20.984;2022-10-31T06:53:33;30.23;;;18.15;;
54923;SDS011;40825;52.270;20.984;2022-10-31T06:55:59;29.65;;;18.98;;
54923;SDS011;40825;52.270;20.984;2022-10-31T06:58:25;31.40;;;18.70;;
54923;SDS011;40825;52.270;20.984;2022-10-31T07:00:53;31.15;;;19.92;;
54923;SDS011;40825;52.270;20.984;2022-10-31T07:03:19;26.87;;;16.65;;
54923;SDS011;40825;52.270;20.984;2022-10-31T07:05:45;28.27;;;17.57;;
54923;SDS011;40825;52.270;20.984;2022-10-31T07:08:13;31.30;;;18.52;;
54923;SDS011;40825;52.270;20.984;2022-10-31T07:10:40;28.00;;;17.00;;
54923;SDS011;40825;52.270;20.984;2022-10-31T07:15:39;29.20;;;17.37;;
54923;SDS011;40825;52.270;20.984;2022-10-31T07:18:09;28.02;;;17.50;;
54923;SDS011;40825;52.270;20.984;2022-10-31T07:20:37;29.65;;;18.07;;
54923;SDS011;40825;52.270;20.984;2022-10-31T07:23:03;28.15;;;16.67;;
54923;SDS011;40825;52.270;20.984;2022-10-31T07:25:29;34.48;;;18.90;;
54923;SDS011;40825;52.270;20.984;2022-10-31T07:27:55;29.92;;;17.92;;
54923;SDS011;40825;52.270;20.984;2022-10-31T07:30:21;31.40;;;18.60;;
54923;SDS011;40825;52.270;20.984;2022-10-31T07:32:48;31.40;;;16.50;;
54923;SDS011;40825;52.270;20.984;2022-10-31T07:35:21;31.60;;;17.77;;
54923;SDS011;40825;52.270;20.984;2022-10-31T07:37:47;31.68;;;17.42;;
54923;SDS011;40825;52.270;20.984;2022-10-31T07:40:14;30.92;;;16.10;;
54923;SDS011;40825;52.270;20.984;2022-10-31T07:42:42;29.95;;;17.00;;
54923;SDS011;40825;52.270;20.984;2022-10-31T07:45:12;27.15;;;15.58;;
54923;SDS011;40825;52.270;20.984;2022-10-31T07:47:43;29.23;;;17.07;;
54923;SDS011;40825;52.270;20.984;2022-10-31T07:50:12;25.92;;;14.80;;
54923;SDS011;40825;52.270;20.984;2022-10-31T07:52:40;32.13;;;16.82;;
54923;SDS011;40825;52.270;20.984;2022-10-31T07:55:07;30.08;;;15.88;;
54923;SDS011;40825;52.270;20.984;2022-10-31T07:57:33;28.10;;;15.40;;
54923;SDS011;40825;52.270;20.984;2022-10-31T07:59:59;28.62;;;17.10;;
54923;SDS011;40825;52.270;20.984;2022-10-31T08:02:26;27.75;;;16.07;;
54923;SDS011;40825;52.270;20.984;2022-10-31T08:04:52;25.88;;;14.28;;
54923;SDS011;40825;52.270;20.984;2022-10-31T08:07:18;26.20;;;14.78;;
54923;SDS011;40825;52.270;20.984;2022-10-31T08:09:44;22.25;;;13.05;;
54923;SDS011;40825;52.270;20.984;2022-10-31T08:12:10;25.17;;;13.93;;
54923;SDS011;40825;52.270;20.984;2022-10-31T08:14:36;26.17;;;14.15;;
54923;SDS011;40825;52.270;20.984;2022-10-31T08:17:02;27.15;;;14.65;;
54923;SDS011;40825;52.270;20.984;2022-10-31T08:19:28;30.77;;;15.30;;
54923;SDS011;40825;52.270;20.984;2022-10-31T08:21:54;26.62;;;14.73;;
54923;SDS011;40825;52.270;20.984;2022-10-31T08:24:20;27.05;;;14.35;;
54923;SDS011;40825;52.270;20.984;2022-10-31T08:26:47;27.52;;;13.83;;
54923;SDS011;40825;52.270;20.984;2022-10-31T08:29:14;26.00;;;13.88;;
54923;SDS011;40825;52.270;20.984;2022-10-31T08:31:40;26.82;;;14.63;;
54923;SDS011;40825;52.270;20.984;2022-10-31T08:34:07;30.60;;;14.90;;
54923;SDS011;40825;52.270;20.984;2022-10-31T08:36:34;32.00;;;15.25;;
54923;SDS011;40825;52.270;20.984;2022-10-31T08:39:00;26.37;;;14.18;;
54923;SDS011;40825;52.270;20.984;2022-10-31T08:41:27;26.20;;;14.93;;
54923;SDS011;40825;52.270;20.984;2022-10-31T08:43:53;27.13;;;14.00;;
54923;SDS011;40825;52.270;20.984;2022-10-31T08:46:19;31.23;;;16.02;;
54923;SDS011;40825;52.270;20.984;2022-10-31T08:48:49;26.97;;;15.40;;
54923;SDS011;40825;52.270;20.984;2022-10-31T08:51:15;24.70;;;14.50;;
54923;SDS011;40825;52.270;20.984;2022-10-31T08:53:41;27.02;;;13.50;;
54923;SDS011;40825;52.270;20.984;2022-10-31T08:56:07;26.73;;;14.73;;
54923;SDS011;40825;52.270;20.984;2022-10-31T08:58:33;23.05;;;12.58;;
54923;SDS011;40825;52.270;20.984;2022-10-31T09:01:00;25.85;;;13.60;;
54923;SDS011;40825;52.270;20.984;2022-10-31T09:03:28;29.12;;;14.98;;
54923;SDS011;40825;52.270;20.984;2022-10-31T09:05:59;28.77;;;14.43;;
54923;SDS011;40825;52.270;20.984;2022-10-31T09:08:31;24.70;;;12.98;;
54923;SDS011;40825;52.270;20.984;2022-10-31T09:10:58;24.72;;;13.08;;
54923;SDS011;40825;52.270;20.984;2022-10-31T09:13:24;29.55;;;14.60;;
54923;SDS011;40825;52.270;20.984;2022-10-31T09:15:51;25.70;;;13.83;;
54923;SDS011;40825;52.270;20.984;2022-10-31T09:18:21;31.27;;;16.07;;
54923;SDS011;40825;52.270;20.984;2022-10-31T09:20:49;27.00;;;14.00;;
54923;SDS011;40825;52.270;20.984;2022-10-31T09:23:17;24.75;;;14.20;;
54923;SDS011;40825;52.270;20.984;2022-10-31T09:25:46;24.12;;;13.13;;
54923;SDS011;40825;52.270;20.984;2022-10-31T09:28:16;25.10;;;15.18;;
54923;SDS011;40825;52.270;20.984;2022-10-31T09:30:48;23.70;;;14.00;;
54923;SDS011;40825;52.270;20.984;2022-10-31T09:33:17;22.40;;;14.07;;
54923;SDS011;40825;52.270;20.984;2022-10-31T09:35:44;24.67;;;13.75;;
54923;SDS011;40825;52.270;20.984;2022-10-31T09:38:15;22.62;;;14.63;;
54923;SDS011;40825;52.270;20.984;2022-10-31T09:40:54;21.10;;;12.28;;
54923;SDS011;40825;52.270;20.984;2022-10-31T09:49:30;20.45;;;13.08;;
54923;SDS011;40825;52.270;20.984;2022-10-31T09:54:49;19.62;;;13.35;;
54923;SDS011;40825;52.270;20.984;2022-10-31T09:57:25;21.70;;;14.13;;
54923;SDS011;40825;52.270;20.984;2022-10-31T09:59:54;20.55;;;14.23;;
54923;SDS011;40825;52.270;20.984;2022-10-31T10:05:02;21.48;;;13.28;;
54923;SDS011;40825;52.270;20.984;2022-10-31T10:16:11;21.52;;;14.18;;
54923;SDS011;40825;52.270;20.984;2022-10-31T10:18:55;20.57;;;13.22;;
54923;SDS011;40825;52.270;20.984;2022-10-31T10:21:35;22.05;;;14.40;;
54923;SDS011;40825;52.270;20.984;2022-10-31T10:24:21;27.93;;;17.35;;
54923;SDS011;40825;52.270;20.984;2022-10-31T10:29:47;25.90;;;16.73;;
54923;SDS011;40825;52.270;20.984;2022-10-31T10:32:28;27.67;;;16.82;;
54923;SDS011;40825;52.270;20.984;2022-10-31T10:35:02;25.40;;;16.67;;
54923;SDS011;40825;52.270;20.984;2022-10-31T10:37:38;23.98;;;14.40;;
54923;SDS011;40825;52.270;20.984;2022-10-31T10:40:11;26.07;;;17.37;;
54923;SDS011;40825;52.270;20.984;2022-10-31T10:42:50;24.25;;;15.98;;
54923;SDS011;40825;52.270;20.984;2022-10-31T10:45:47;30.77;;;17.35;;
54923;SDS011;40825;52.270;20.984;2022-10-31T10:48:44;26.62;;;16.62;;
54923;SDS011;40825;52.270;20.984;2022-10-31T10:51:21;21.42;;;13.38;;
54923;SDS011;40825;52.270;20.984;2022-10-31T10:54:31;24.63;;;15.25;;
54923;SDS011;40825;52.270;20.984;2022-10-31T10:56:58;22.90;;;14.47;;
54923;SDS011;40825;52.270;20.984;2022-10-31T10:59:37;24.47;;;15.03;;
54923;SDS011;40825;52.270;20.984;2022-10-31T11:02:08;22.05;;;13.53;;
54923;SDS011;40825;52.270;20.984;2022-10-31T11:04:43;24.37;;;15.70;;
54923;SDS011;40825;52.270;20.984;2022-10-31T11:07:14;22.05;;;14.85;;
54923;SDS011;40825;52.270;20.984;2022-10-31T11:09:42;23.30;;;14.80;;
54923;SDS011;40825;52.270;20.984;2022-10-31T11:12:09;23.60;;;14.35;;
54923;SDS011;40825;52.270;20.984;2022-10-31T11:14:51;23.60;;;15.03;;
54923;SDS011;40825;52.270;20.984;2022-10-31T11:17:25;23.42;;;14.68;;
54923;SDS011;40825;52.270;20.984;2022-10-31T11:23:10;22.17;;;14.53;;
54923;SDS011;40825;52.270;20.984;2022-10-31T11:25:54;19.82;;;11.78;;
54923;SDS011;40825;52.270;20.984;2022-10-31T11:28:26;19.95;;;12.88;;
54923;SDS011;40825;52.270;20.984;2022-10-31T11:36:09;23.02;;;12.95;;
54923;SDS011;40825;52.270;20.984;2022-10-31T11:38:49;21.07;;;12.43;;
54923;SDS011;40825;52.270;20.984;2022-10-31T11:43:59;19.00;;;11.75;;
54923;SDS011;40825;52.270;20.984;2022-10-31T11:49:15;16.57;;;10.63;;
54923;SDS011;40825;52.270;20.984;2022-10-31T11:52:25;17.02;;;11.43;;
54923;SDS011;40825;52.270;20.984;2022-10-31T11:54:53;18.37;;;11.22;;
54923;SDS011;40825;52.270;20.984;2022-10-31T11:57:42;18.37;;;10.28;;
54923;SDS011;40825;52.270;20.984;2022-10-31T12:00:21;20.57;;;12.53;;
54923;SDS011;40825;52.270;20.984;2022-10-31T12:06:05;18.27;;;10.63;;
54923;SDS011;40825;52.270;20.984;2022-10-31T12:08:36;18.45;;;12.20;;
54923;SDS011;40825;52.270;20.984;2022-10-31T12:16:50;17.37;;;10.95;;
54923;SDS011;40825;52.270;20.984;2022-10-31T12:25:28;19.15;;;12.15;;
54923;SDS011;40825;52.270;20.984;2022-10-31T12:34:38;20.80;;;11.33;;
54923;SDS011;40825;52.270;20.984;2022-10-31T12:37:21;19.30;;;11.75;;
54923;SDS011;40825;52.270;20.984;2022-10-31T12:39:55;17.60;;;10.95;;
54923;SDS011;40825;52.270;20.984;2022-10-31T12:45:55;20.43;;;11.68;;
54923;SDS011;40825;52.270;20.984;2022-10-31T12:59:45;23.10;;;12.28;;
54923;SDS011;40825;52.270;20.984;2022-10-31T13:02:24;23.22;;;13.22;;
54923;SDS011;40825;52.270;20.984;2022-10-31T13:05:11;21.83;;;11.73;;
54923;SDS011;40825;52.270;20.984;2022-10-31T13:10:48;22.98;;;11.65;;
54923;SDS011;40825;52.270;20.984;2022-10-31T13:13:27;22.98;;;12.07;;
54923;SDS011;40825;52.270;20.984;2022-10-31T13:16:20;23.15;;;13.00;;
54923;SDS011;40825;52.270;20.984;2022-10-31T13:18:54;18.62;;;11.18;;
54923;SDS011;40825;52.270;20.984;2022-10-31T13:21:29;22.62;;;12.88;;
54923;SDS011;40825;52.270;20.984;2022-10-31T13:26:43;20.52;;;12.07;;
54923;SDS011;40825;52.270;20.984;2022-10-31T13:29:29;23.10;;;12.53;;
54923;SDS011;40825;52.270;20.984;2022-10-31T13:32:08;23.02;;;11.83;;
54923;SDS011;40825;52.270;20.984;2022-10-31T13:34:43;23.18;;;12.93;;
54923;SDS011;40825;52.270;20.984;2022-10-31T13:45:56;23.40;;;14.47;;
54923;SDS011;40825;52.270;20.984;2022-10-31T13:51:00;26.77;;;15.50;;
54923;SDS011;40825;52.270;20.984;2022-10-31T13:53:36;25.97;;;15.10;;
54923;SDS011;40825;52.270;20.984;2022-10-31T14:01:48;23.98;;;14.45;;
54923;SDS011;40825;52.270;20.984;2022-10-31T14:04:26;25.02;;;15.60;;
54923;SDS011;40825;52.270;20.984;2022-10-31T14:07:13;27.02;;;15.50;;
54923;SDS011;40825;52.270;20.984;2022-10-31T14:09:53;25.88;;;14.45;;
54923;SDS011;40825;52.270;20.984;2022-10-31T14:15:51;24.63;;;13.20;;
54923;SDS011;40825;52.270;20.984;2022-10-31T14:17:53;26.57;;;15.45;;
54923;SDS011;40825;52.270;20.984;2022-10-31T14:28:57;28.20;;;16.60;;
54923;SDS011;40825;52.270;20.984;2022-10-31T14:31:35;32.73;;;14.80;;
54923;SDS011;40825;52.270;20.984;2022-10-31T14:49:18;29.32;;;16.52;;
54923;SDS011;40825;52.270;20.984;2022-10-31T14:52:00;30.92;;;16.50;;
54923;SDS011;40825;52.270;20.984;2022-10-31T14:54:28;31.02;;;16.40;;
54923;SDS011;40825;52.270;20.984;2022-10-31T14:59:36;29.12;;;16.00;;
54923;SDS011;40825;52.270;20.984;2022-10-31T15:02:23;26.35;;;14.25;;
54923;SDS011;40825;52.270;20.984;2022-10-31T15:05:07;26.75;;;13.90;;
54923;SDS011;40825;52.270;20.984;2022-10-31T15:07:34;27.93;;;15.28;;
54923;SDS011;40825;52.270;20.984;2022-10-31T15:10:01;26.90;;;15.15;;
54923;SDS011;40825;52.270;20.984;2022-10-31T15:12:32;30.20;;;16.05;;
54923;SDS011;40825;52.270;20.984;2022-10-31T15:15:18;26.48;;;14.05;;
54923;SDS011;40825;52.270;20.984;2022-10-31T15:17:49;26.87;;;15.88;;
54923;SDS011;40825;52.270;20.984;2022-10-31T15:20:24;29.67;;;14.55;;
54923;SDS011;40825;52.270;20.984;2022-10-31T15:22:55;25.70;;;13.95;;
54923;SDS011;40825;52.270;20.984;2022-10-31T15:25:23;23.80;;;14.05;;
54923;SDS011;40825;52.270;20.984;2022-10-31T15:27:52;29.80;;;14.87;;
54923;SDS011;40825;52.270;20.984;2022-10-31T15:30:20;25.30;;;13.05;;
54923;SDS011;40825;52.270;20.984;2022-10-31T15:32:50;29.90;;;14.47;;
54923;SDS011;40825;52.270;20.984;2022-10-31T15:35:20;30.60;;;15.70;;
54923;SDS011;40825;52.270;20.984;2022-10-31T15:37:56;30.48;;;15.88;;
54923;SDS011;40825;52.270;20.984;2022-10-31T15:40:24;28.80;;;14.50;;
54923;SDS011;40825;52.270;20.984;2022-10-31T15:43:00;31.75;;;15.75;;
54923;SDS011;40825;52.270;20.984;2022-10-31T15:45:28;34.45;;;16.42;;
54923;SDS011;40825;52.270;20.984;2022-10-31T15:47:56;35.70;;;15.95;;
54923;SDS011;40825;52.270;20.984;2022-10-31T15:50:36;35.08;;;16.27;;
54923;SDS011;40825;52.270;20.984;2022-10-31T15:53:17;31.05;;;13.40;;
54923;SDS011;40825;52.270;20.984;2022-10-31T15:56:03;28.92;;;15.45;;
54923;SDS011;40825;52.270;20.984;2022-10-31T15:58:32;30.65;;;14.73;;
54923;SDS011;40825;52.270;20.984;2022-10-31T16:03:59;33.80;;;15.78;;
54923;SDS011;40825;52.270;20.984;2022-10-31T16:06:59;34.05;;;15.70;;
54923;SDS011;40825;52.270;20.984;2022-10-31T16:09:49;38.83;;;17.52;;
54923;SDS011;40825;52.270;20.984;2022-10-31T16:12:29;40.00;;;17.57;;
54923;SDS011;40825;52.270;20.984;2022-10-31T16:14:59;34.80;;;16.42;;
54923;SDS011;40825;52.270;20.984;2022-10-31T16:17:26;36.53;;;17.17;;
54923;SDS011;40825;52.270;20.984;2022-10-31T16:20:05;38.92;;;18.00;;
54923;SDS011;40825;52.270;20.984;2022-10-31T16:22:34;37.53;;;18.00;;
54923;SDS011;40825;52.270;20.984;2022-10-31T16:27:46;37.15;;;17.70;;
54923;SDS011;40825;52.270;20.984;2022-10-31T16:33:24;37.15;;;16.48;;
54923;SDS011;40825;52.270;20.984;2022-10-31T16:35:58;41.83;;;18.23;;
54923;SDS011;40825;52.270;20.984;2022-10-31T16:38:28;38.23;;;17.00;;
54923;SDS011;40825;52.270;20.984;2022-10-31T16:40:54;37.15;;;16.37;;
54923;SDS011;40825;52.270;20.984;2022-10-31T16:43:20;26.10;;;12.10;;
54923;SDS011;40825;52.270;20.984;2022-10-31T16:45:49;37.25;;;17.62;;
54923;SDS011;40825;52.270;20.984;2022-10-31T16:48:18;40.48;;;18.25;;
54923;SDS011;40825;52.270;20.984;2022-10-31T16:50:48;37.30;;;16.85;;
54923;SDS011;40825;52.270;20.984;2022-10-31T16:53:15;41.73;;;17.75;;
54923;SDS011;40825;52.270;20.984;2022-10-31T16:58:30;40.85;;;17.87;;
54923;SDS011;40825;52.270;20.984;2022-10-31T17:00:59;42.53;;;18.77;;
54923;SDS011;40825;52.270;20.984;2022-10-31T17:03:27;27.37;;;12.93;;
54923;SDS011;40825;52.270;20.984;2022-10-31T17:05:53;38.02;;;17.35;;
54923;SDS011;40825;52.270;20.984;2022-10-31T17:08:22;33.65;;;15.63;;
54923;SDS011;40825;52.270;20.984;2022-10-31T17:10:53;43.87;;;18.25;;
54923;SDS011;40825;52.270;20.984;2022-10-31T17:13:22;37.15;;;16.55;;
54923;SDS011;40825;52.270;20.984;2022-10-31T17:15:51;39.78;;;16.82;;
54923;SDS011;40825;52.270;20.984;2022-10-31T17:18:20;42.62;;;16.62;;
54923;SDS011;40825;52.270;20.984;2022-10-31T17:20:46;35.38;;;15.58;;
54923;SDS011;40825;52.270;20.984;2022-10-31T17:23:13;42.08;;;17.48;;
54923;SDS011;40825;52.270;20.984;2022-10-31T17:25:41;38.78;;;17.15;;